createdAt,value
2018-12-10T00:00:28.630Z,1007.77
2018-12-10T00:02:29.582Z,1007.71
2018-12-10T00:03:21.960Z,1007.76
2018-12-10T00:05:15.194Z,1007.55
2018-12-10T00:06:15.170Z,1007.72
2018-12-10T00:08:09.437Z,1007.76
2018-12-10T00:09:17.055Z,1007.71
2018-12-10T00:11:12.332Z,1007.71
2018-12-10T00:12:03.682Z,1007.78
2018-12-10T00:14:05.611Z,1007.82
2018-12-10T00:14:57.937Z,1007.81
2018-12-10T00:16:52.247Z,1007.87
2018-12-10T00:17:52.214Z,1007.85
2018-12-10T00:19:53.104Z,1007.86
2018-12-10T00:20:45.455Z,1007.83
2018-12-10T00:22:47.462Z,1007.87
2018-12-10T00:23:39.734Z,1007.86
2018-12-10T00:25:33.042Z,1007.94
2018-12-10T00:26:33.032Z,1008.02
2018-12-10T00:28:34.045Z,1008.03
2018-12-10T00:29:26.263Z,1008.07
2018-12-10T00:31:19.598Z,1008.04
2018-12-10T00:32:19.520Z,1008.06
2018-12-10T00:34:12.964Z,1008.10
2018-12-10T00:35:12.843Z,1008.12
2018-12-10T00:37:14.803Z,1008.12
2018-12-10T00:38:07.108Z,1008.15
2018-12-10T00:40:01.460Z,1008.21
2018-12-10T00:41:01.394Z,1008.22
2018-12-10T00:42:55.702Z,1008.34
2018-12-10T00:43:55.654Z,1008.34
2018-12-10T00:45:48.963Z,1008.44
2018-12-10T00:46:48.928Z,1008.43
2018-12-10T00:48:43.228Z,1008.45
2018-12-10T00:49:43.186Z,1008.42
2018-12-10T00:51:44.165Z,1008.42
2018-12-10T00:52:36.439Z,1008.41
2018-12-10T00:54:37.441Z,1008.45
2018-12-10T00:55:29.726Z,1008.53
2018-12-10T00:57:24.057Z,1008.55
2018-12-10T00:58:24.012Z,1008.49
2018-12-10T01:00:18.330Z,1008.52
2018-12-10T01:01:18.251Z,1008.55
2018-12-10T01:03:11.535Z,1008.51
2018-12-10T01:04:11.501Z,1008.53
2018-12-10T01:06:05.825Z,1008.54
2018-12-10T01:07:05.746Z,1008.58
2018-12-10T01:08:59.298Z,1008.60
2018-12-10T01:09:59.262Z,1008.66
2018-12-10T01:12:00.212Z,1008.67
2018-12-10T01:12:52.511Z,1008.73
2018-12-10T01:14:45.826Z,1008.72
2018-12-10T01:15:45.775Z,1008.80
2018-12-10T01:17:47.672Z,1008.82
2018-12-10T01:18:39.043Z,1008.77
2018-12-10T01:20:32.326Z,1008.79
2018-12-10T01:21:32.271Z,1008.87
2018-12-10T01:23:25.604Z,1008.95
2018-12-10T01:24:25.547Z,1008.89
2018-12-10T01:26:18.852Z,1008.89
2018-12-10T01:27:26.413Z,1008.99
2018-12-10T01:29:20.732Z,1008.93
2018-12-10T01:30:12.041Z,1008.99
2018-12-10T01:32:12.976Z,1009.04
2018-12-10T01:33:05.342Z,1008.99
2018-12-10T01:35:07.243Z,1008.99
2018-12-10T01:35:58.565Z,1008.99
2018-12-10T01:37:51.868Z,1009.05
2018-12-10T01:38:51.821Z,1009.04
2018-12-10T01:40:46.151Z,1009.05
2018-12-10T01:41:46.077Z,1009.10
2018-12-10T01:43:40.403Z,1009.17
2018-12-10T01:44:40.376Z,1009.17
2018-12-10T01:46:42.267Z,1009.18
2018-12-10T01:47:34.617Z,1009.29
2018-12-10T01:49:37.556Z,1009.31
2018-12-10T01:50:28.863Z,1009.32
2018-12-10T01:52:29.774Z,1009.33
2018-12-10T01:53:22.132Z,1009.32
2018-12-10T01:55:15.463Z,1009.34
2018-12-10T01:56:15.388Z,1009.47
2018-12-10T01:58:08.692Z,1009.36
2018-12-10T01:59:08.642Z,1009.43
2018-12-10T02:01:01.955Z,1009.43
2018-12-10T02:02:01.897Z,1009.43
2018-12-10T02:03:55.223Z,1009.42
2018-12-10T02:04:55.152Z,1009.53
2018-12-10T02:06:57.109Z,1009.57
2018-12-10T02:07:49.419Z,1009.54
2018-12-10T02:09:42.730Z,1009.60
2018-12-10T02:10:42.677Z,1009.58
2018-12-10T02:12:35.968Z,1009.68
2018-12-10T02:13:35.921Z,1009.67
2018-12-10T02:15:29.213Z,1009.59
2018-12-10T02:16:29.183Z,1009.61
2018-12-10T02:18:22.492Z,1009.67
2018-12-10T02:19:22.423Z,1009.71
2018-12-10T02:21:16.728Z,1009.67
2018-12-10T02:22:16.690Z,1009.68
2018-12-10T02:24:09.999Z,1009.67
2018-12-10T02:25:09.945Z,1009.66
2018-12-10T02:27:03.257Z,1009.69
2018-12-10T02:28:03.290Z,1009.66
2018-12-10T02:29:56.505Z,1009.67
2018-12-10T02:30:56.480Z,1009.68
2018-12-10T02:32:49.799Z,1009.68
2018-12-10T02:33:49.738Z,1009.72
2018-12-10T02:35:43.064Z,1009.68
2018-12-10T02:36:43.056Z,1009.70
2018-12-10T02:38:36.341Z,1009.74
2018-12-10T02:39:36.299Z,1009.69
2018-12-10T02:41:29.566Z,1009.70
2018-12-10T02:42:29.525Z,1009.71
2018-12-10T02:44:22.851Z,1009.69
2018-12-10T02:45:22.775Z,1009.72
2018-12-10T02:47:16.111Z,1009.66
2018-12-10T02:48:16.042Z,1009.67
2018-12-10T02:50:09.354Z,1009.63
2018-12-10T02:51:09.320Z,1009.63
2018-12-10T02:53:02.645Z,1009.64
2018-12-10T02:54:02.566Z,1009.63
2018-12-10T02:55:55.882Z,1009.63
2018-12-10T02:56:55.846Z,1009.70
2018-12-10T02:58:49.223Z,1009.70
2018-12-10T02:59:49.073Z,1009.71
2018-12-10T03:01:42.394Z,1009.76
2018-12-10T03:02:42.342Z,1009.74
2018-12-10T03:04:43.303Z,1009.80
2018-12-10T03:05:35.621Z,1009.88
2018-12-10T03:07:28.927Z,1009.88
2018-12-10T03:08:28.879Z,1009.85
2018-12-10T03:10:22.221Z,1009.90
2018-12-10T03:11:22.132Z,1009.90
2018-12-10T03:13:15.451Z,1009.92
2018-12-10T03:14:15.417Z,1009.90
2018-12-10T03:16:08.709Z,1009.98
2018-12-10T03:17:08.671Z,1010.02
2018-12-10T03:19:01.980Z,1009.93
2018-12-10T03:20:01.920Z,1009.98
2018-12-10T03:21:56.214Z,1009.93
2018-12-10T03:22:56.170Z,1009.94
2018-12-10T03:24:49.485Z,1009.94
2018-12-10T03:25:49.452Z,1009.94
2018-12-10T03:27:42.718Z,1009.92
2018-12-10T03:28:42.695Z,1009.93
2018-12-10T03:30:36.007Z,1009.98
2018-12-10T03:31:35.947Z,1010.07
2018-12-10T03:33:29.258Z,1010.05
2018-12-10T03:34:29.192Z,1010.04
2018-12-10T03:36:22.521Z,1009.98
2018-12-10T03:37:22.471Z,1010.02
2018-12-10T03:39:15.766Z,1009.99
2018-12-10T03:40:15.726Z,1010.03
2018-12-10T03:42:09.032Z,1010.01
2018-12-10T03:43:08.956Z,1009.99
2018-12-10T03:45:02.296Z,1009.97
2018-12-10T03:46:02.207Z,1010.03
2018-12-10T03:48:03.183Z,1009.99
2018-12-10T03:48:55.492Z,1009.99
2018-12-10T03:50:56.437Z,1009.97
2018-12-10T03:51:48.737Z,1010.04
2018-12-10T03:53:43.019Z,1010.09
2018-12-10T03:54:42.992Z,1010.07
2018-12-10T03:56:37.302Z,1010.12
2018-12-10T03:57:37.235Z,1010.15
2018-12-10T03:59:31.523Z,1010.22
2018-12-10T04:00:31.509Z,1010.16
2018-12-10T04:02:25.825Z,1010.17
2018-12-10T04:03:25.745Z,1010.23
2018-12-10T04:05:19.079Z,1010.23
2018-12-10T04:06:19.009Z,1010.26
2018-12-10T04:08:12.329Z,1010.32
2018-12-10T04:09:12.264Z,1010.31
2018-12-10T04:11:05.615Z,1010.27
2018-12-10T04:12:05.538Z,1010.35
2018-12-10T04:13:58.844Z,1010.35
2018-12-10T04:14:58.810Z,1010.30
2018-12-10T04:16:52.114Z,1010.28
2018-12-10T04:17:52.064Z,1010.31
2018-12-10T04:19:54.035Z,1010.21
2018-12-10T04:20:45.315Z,1010.28
2018-12-10T04:22:46.267Z,1010.26
2018-12-10T04:23:46.239Z,1010.27
2018-12-10T04:25:39.515Z,1010.31
2018-12-10T04:26:40.474Z,1010.38
2018-12-10T04:28:25.176Z,1010.44
2018-12-10T04:29:25.127Z,1010.41
2018-12-10T04:31:18.399Z,1010.46
2018-12-10T04:32:18.370Z,1010.45
2018-12-10T04:34:13.691Z,1010.41
2018-12-10T04:35:13.621Z,1010.41
2018-12-10T04:37:06.925Z,1010.41
2018-12-10T04:38:06.859Z,1010.43
2018-12-10T04:40:07.830Z,1010.46
2018-12-10T04:41:08.754Z,1010.53
2018-12-10T04:42:53.466Z,1010.44
2018-12-10T04:43:53.377Z,1010.49
2018-12-10T04:45:55.296Z,1010.47
2018-12-10T04:46:46.626Z,1010.48
2018-12-10T04:48:47.580Z,1010.50
2018-12-10T04:49:39.895Z,1010.53
2018-12-10T04:51:34.186Z,1010.53
2018-12-10T04:52:34.175Z,1010.54
2018-12-10T04:54:27.491Z,1010.60
2018-12-10T04:55:27.411Z,1010.58
2018-12-10T04:57:21.716Z,1010.63
2018-12-10T04:58:21.676Z,1010.69
2018-12-10T05:00:14.975Z,1010.75
2018-12-10T05:01:14.906Z,1010.75
2018-12-10T05:03:08.245Z,1010.81
2018-12-10T05:04:08.162Z,1010.83
2018-12-10T05:06:01.460Z,1010.81
2018-12-10T05:07:01.406Z,1010.80
2018-12-10T05:08:54.737Z,1010.92
2018-12-10T05:09:54.681Z,1010.90
2018-12-10T05:11:47.991Z,1010.95
2018-12-10T05:12:47.941Z,1010.94
2018-12-10T05:14:41.268Z,1010.98
2018-12-10T05:15:41.191Z,1010.95
2018-12-10T05:17:34.509Z,1010.97
2018-12-10T05:18:34.455Z,1011.00
2018-12-10T05:20:27.807Z,1011.03
2018-12-10T05:21:27.762Z,1011.04
2018-12-10T05:23:21.053Z,1011.05
2018-12-10T05:24:20.999Z,1011.09
2018-12-10T05:26:14.348Z,1011.11
2018-12-10T05:27:14.278Z,1011.06
2018-12-10T05:29:07.548Z,1011.10
2018-12-10T05:30:07.519Z,1011.09
2018-12-10T05:32:01.820Z,1011.08
2018-12-10T05:33:01.749Z,1011.06
2018-12-10T05:34:56.073Z,1011.07
2018-12-10T05:35:56.020Z,1011.06
2018-12-10T05:37:50.334Z,1011.08
2018-12-10T05:38:50.272Z,1011.04
2018-12-10T05:40:51.243Z,1011.01
2018-12-10T05:41:43.530Z,1011.00
2018-12-10T05:43:36.822Z,1010.96
2018-12-10T05:44:36.787Z,1011.02
2018-12-10T05:46:31.135Z,1011.01
2018-12-10T05:47:31.063Z,1011.06
2018-12-10T05:49:24.353Z,1011.11
2018-12-10T05:50:24.338Z,1011.12
2018-12-10T05:52:17.659Z,1011.19
2018-12-10T05:53:17.569Z,1011.21
2018-12-10T05:55:10.903Z,1011.20
2018-12-10T05:56:10.819Z,1011.26
2018-12-10T05:58:05.190Z,1011.27
2018-12-10T05:59:05.113Z,1011.36
2018-12-10T06:00:58.435Z,1011.35
2018-12-10T06:01:58.345Z,1011.42
2018-12-10T06:03:51.692Z,1011.40
2018-12-10T06:04:51.597Z,1011.38
2018-12-10T06:06:45.914Z,1011.37
2018-12-10T06:07:45.881Z,1011.42
2018-12-10T06:09:39.150Z,1011.39
2018-12-10T06:10:39.145Z,1011.42
2018-12-10T06:12:32.427Z,1011.40
2018-12-10T06:13:32.354Z,1011.44
2018-12-10T06:15:25.666Z,1011.47
2018-12-10T06:16:25.629Z,1011.47
2018-12-10T06:18:18.960Z,1011.45
2018-12-10T06:19:18.883Z,1011.53
2018-12-10T06:21:13.186Z,1011.53
2018-12-10T06:22:13.129Z,1011.52
2018-12-10T06:24:07.433Z,1011.54
2018-12-10T06:25:07.375Z,1011.61
2018-12-10T06:27:00.685Z,1011.60
2018-12-10T06:28:00.639Z,1011.63
2018-12-10T06:29:54.959Z,1011.63
2018-12-10T06:30:54.890Z,1011.63
2018-12-10T06:32:48.205Z,1011.65
2018-12-10T06:33:48.181Z,1011.70
2018-12-10T06:35:49.080Z,1011.65
2018-12-10T06:36:41.415Z,1011.73
2018-12-10T06:38:34.729Z,1011.74
2018-12-10T06:39:34.694Z,1011.74
2018-12-10T06:41:27.995Z,1011.78
2018-12-10T06:42:27.940Z,1011.73
2018-12-10T06:44:21.266Z,1011.81
2018-12-10T06:45:21.191Z,1011.80
2018-12-10T06:47:14.512Z,1011.83
2018-12-10T06:48:14.468Z,1011.91
2018-12-10T06:50:07.800Z,1011.89
2018-12-10T06:51:07.736Z,1011.84
2018-12-10T06:53:01.047Z,1011.88
2018-12-10T06:54:01.002Z,1011.92
2018-12-10T06:55:54.326Z,1011.93
2018-12-10T06:56:54.257Z,1011.95
2018-12-10T06:58:48.588Z,1011.92
2018-12-10T06:59:48.522Z,1011.94
2018-12-10T07:01:41.847Z,1011.92
2018-12-10T07:02:41.770Z,1011.91
2018-12-10T07:04:35.107Z,1011.92
2018-12-10T07:05:35.041Z,1011.95
2018-12-10T07:07:31.081Z,1011.95
2018-12-10T07:08:29.336Z,1011.92
2018-12-10T07:10:22.623Z,1011.94
2018-12-10T07:11:22.561Z,1011.90
2018-12-10T07:13:15.866Z,1011.94
2018-12-10T07:14:15.812Z,1011.98
2018-12-10T07:16:09.138Z,1011.98
2018-12-10T07:17:09.072Z,1012.04
2018-12-10T07:19:02.374Z,1012.00
2018-12-10T07:20:02.312Z,1012.04
2018-12-10T07:21:55.678Z,1012.04
2018-12-10T07:22:55.613Z,1012.01
2018-12-10T07:24:48.923Z,1012.00
2018-12-10T07:25:48.838Z,1012.01
2018-12-10T07:27:43.138Z,1012.03
2018-12-10T07:28:43.082Z,1012.11
2018-12-10T07:30:41.372Z,1012.13
2018-12-10T07:31:37.331Z,1012.10
2018-12-10T07:33:30.657Z,1012.13
2018-12-10T07:34:30.595Z,1012.16
2018-12-10T07:36:23.938Z,1012.19
2018-12-10T07:37:23.842Z,1012.19
2018-12-10T07:39:18.137Z,1012.22
2018-12-10T07:40:18.108Z,1012.23
2018-12-10T07:42:11.429Z,1012.25
2018-12-10T07:43:11.377Z,1012.27
2018-12-10T07:45:04.679Z,1012.26
2018-12-10T07:46:12.212Z,1012.28
2018-12-10T07:47:57.928Z,1012.19
2018-12-10T07:48:57.891Z,1012.26
2018-12-10T07:50:51.199Z,1012.20
2018-12-10T07:51:51.134Z,1012.22
2018-12-10T07:53:44.454Z,1012.26
2018-12-10T07:54:44.415Z,1012.35
2018-12-10T07:56:37.713Z,1012.37
2018-12-10T07:57:37.653Z,1012.33
2018-12-10T07:59:31.977Z,1012.34
2018-12-10T08:00:31.917Z,1012.34
2018-12-10T08:02:25.238Z,1012.33
2018-12-10T08:03:25.157Z,1012.37
2018-12-10T08:05:18.454Z,1012.44
2018-12-10T08:06:18.413Z,1012.42
2018-12-10T08:08:11.740Z,1012.44
2018-12-10T08:09:11.685Z,1012.40
2018-12-10T08:11:04.974Z,1012.41
2018-12-10T08:12:04.940Z,1012.39
2018-12-10T08:13:58.198Z,1012.41
2018-12-10T08:14:58.178Z,1012.40
2018-12-10T08:16:51.472Z,1012.47
2018-12-10T08:17:51.443Z,1012.50
2018-12-10T08:19:44.733Z,1012.49
2018-12-10T08:20:44.679Z,1012.49
2018-12-10T08:22:38.019Z,1012.50
2018-12-10T08:23:37.935Z,1012.49
2018-12-10T08:25:32.319Z,1012.56
2018-12-10T08:26:32.299Z,1012.53
2018-12-10T08:28:25.534Z,1012.57
2018-12-10T08:29:25.583Z,1012.51
2018-12-10T08:31:19.929Z,1012.56
2018-12-10T08:32:19.868Z,1012.58
2018-12-10T08:34:13.385Z,1012.59
2018-12-10T08:35:13.113Z,1012.64
2018-12-10T08:37:07.440Z,1012.72
2018-12-10T08:38:07.304Z,1012.72
2018-12-10T08:40:01.669Z,1012.78
2018-12-10T08:41:01.651Z,1012.76
2018-12-10T08:42:56.164Z,1012.84
2018-12-10T08:43:55.814Z,1012.84
2018-12-10T08:45:48.685Z,1012.88
2018-12-10T08:46:48.598Z,1012.84
2018-12-10T08:48:42.105Z,1012.89
2018-12-10T08:49:41.895Z,1012.85
2018-12-10T08:51:35.215Z,1012.86
2018-12-10T08:52:35.156Z,1012.93
2018-12-10T08:54:29.447Z,1012.88
2018-12-10T08:55:29.419Z,1012.84
2018-12-10T08:57:22.791Z,1012.87
2018-12-10T08:58:22.684Z,1012.82
2018-12-10T09:00:15.954Z,1012.79
2018-12-10T09:01:15.926Z,1012.85
2018-12-10T09:03:10.247Z,1012.85
2018-12-10T09:04:10.222Z,1012.90
2018-12-10T09:06:03.569Z,1012.87
2018-12-10T09:07:03.471Z,1012.89
2018-12-10T09:08:57.820Z,1012.95
2018-12-10T09:09:57.860Z,1012.90
2018-12-10T09:11:51.071Z,1012.88
2018-12-10T09:12:51.115Z,1012.93
2018-12-10T09:14:45.374Z,1012.94
2018-12-10T09:15:45.341Z,1012.97
2018-12-10T09:17:38.645Z,1012.95
2018-12-10T09:18:38.602Z,1012.96
2018-12-10T09:20:31.947Z,1013.07
2018-12-10T09:21:31.928Z,1013.04
2018-12-10T09:23:25.170Z,1013.09
2018-12-10T09:24:25.210Z,1013.10
2018-12-10T09:26:18.523Z,1013.09
2018-12-10T09:27:18.422Z,1013.12
2018-12-10T09:29:11.628Z,1013.15
2018-12-10T09:30:11.608Z,1013.14
2018-12-10T09:32:05.022Z,1013.14
2018-12-10T09:33:04.965Z,1013.10
2018-12-10T09:34:58.387Z,1013.21
2018-12-10T09:35:58.130Z,1013.34
2018-12-10T09:37:52.594Z,1013.26
2018-12-10T09:38:52.497Z,1013.29
2018-12-10T09:40:46.863Z,1013.23
2018-12-10T09:41:46.996Z,1013.17
2018-12-10T09:43:40.054Z,1013.19
2018-12-10T09:44:39.976Z,1013.25
2018-12-10T09:46:34.492Z,1013.14
2018-12-10T09:47:34.192Z,1013.19
2018-12-10T09:49:29.188Z,1013.26
2018-12-10T09:50:27.541Z,1013.20
2018-12-10T09:52:20.963Z,1013.21
2018-12-10T09:53:20.898Z,1013.24
2018-12-10T09:55:14.106Z,1013.25
2018-12-10T09:56:14.152Z,1013.25
2018-12-10T09:58:08.303Z,1013.24
2018-12-10T09:59:08.354Z,1013.22
2018-12-10T10:01:02.806Z,1013.18
2018-12-10T10:02:02.738Z,1013.14
2018-12-10T10:03:57.059Z,1013.22
2018-12-10T10:04:56.946Z,1013.23
2018-12-10T10:06:51.337Z,1013.29
2018-12-10T10:07:51.334Z,1013.30
2018-12-10T10:09:44.658Z,1013.23
2018-12-10T10:10:44.552Z,1013.26
2018-12-10T10:12:37.797Z,1013.36
2018-12-10T10:13:37.735Z,1013.39
2018-12-10T10:15:32.151Z,1013.37
2018-12-10T10:16:32.138Z,1013.37
2018-12-10T10:18:26.347Z,1013.47
2018-12-10T10:19:26.333Z,1013.49
2018-12-10T10:21:19.630Z,1013.42
2018-12-10T10:22:19.559Z,1013.46
2018-12-10T10:24:14.049Z,1013.42
2018-12-10T10:25:13.844Z,1013.39
2018-12-10T10:27:09.430Z,1013.39
2018-12-10T10:28:09.331Z,1013.34
2018-12-10T10:30:02.699Z,1013.34
2018-12-10T10:31:02.570Z,1013.40
2018-12-10T10:32:58.585Z,1013.42
2018-12-10T10:33:58.149Z,1013.36
2018-12-10T10:35:52.478Z,1013.32
2018-12-10T10:36:52.513Z,1013.28
2018-12-10T10:38:46.638Z,1013.22
2018-12-10T10:39:49.605Z,1013.20
2018-12-10T10:41:41.881Z,1013.26
2018-12-10T10:43:55.282Z,1013.33
2018-12-10T10:44:55.181Z,1013.33
2018-12-10T10:46:49.174Z,1013.30
2018-12-10T10:47:49.840Z,1013.30
2018-12-10T10:49:41.892Z,1013.28
2018-12-10T10:50:41.488Z,1013.29
2018-12-10T10:52:34.932Z,1013.26
2018-12-10T10:53:34.846Z,1013.28
2018-12-10T10:55:29.545Z,1013.23
2018-12-10T10:56:29.606Z,1013.22
2018-12-10T10:58:24.106Z,1013.23
2018-12-10T10:59:23.754Z,1013.23
2018-12-10T11:01:16.556Z,1013.20
2018-12-10T11:02:16.565Z,1013.13
2018-12-10T11:04:10.681Z,1013.11
2018-12-10T11:05:09.860Z,1013.18
2018-12-10T11:07:07.219Z,1013.09
2018-12-10T11:08:07.225Z,1013.10
2018-12-10T11:10:01.561Z,1013.10
2018-12-10T11:11:01.598Z,1013.06
2018-12-10T11:12:54.750Z,1013.06
2018-12-10T11:13:54.752Z,1013.14
2018-12-10T11:15:48.161Z,1013.09
2018-12-10T11:16:47.905Z,1013.07
2018-12-10T11:18:40.875Z,1013.04
2018-12-10T11:19:41.070Z,1013.08
2018-12-10T11:21:35.139Z,1013.06
2018-12-10T11:22:35.031Z,1013.04
2018-12-10T11:24:29.927Z,1013.10
2018-12-10T11:25:29.846Z,1013.06
2018-12-10T11:27:24.334Z,1013.11
2018-12-10T11:28:24.131Z,1013.06
2018-12-10T11:30:17.732Z,1013.05
2018-12-10T11:31:17.413Z,1013.05
2018-12-10T11:33:14.081Z,1013.10
2018-12-10T11:34:13.694Z,1013.05
2018-12-10T11:36:07.402Z,1013.05
2018-12-10T11:37:07.428Z,1013.04
2018-12-10T11:39:02.797Z,1013.07
2018-12-10T11:40:02.522Z,1013.01
2018-12-10T11:41:55.697Z,1013.03
2018-12-10T11:42:55.723Z,1013.06
2018-12-10T11:44:50.427Z,1012.96
2018-12-10T11:45:49.878Z,1012.98
2018-12-10T11:47:43.353Z,1012.95
2018-12-10T11:48:43.191Z,1012.93
2018-12-10T11:50:37.508Z,1012.88
2018-12-10T11:51:37.603Z,1012.88
2018-12-10T11:53:31.818Z,1012.84
2018-12-10T11:54:31.804Z,1012.78
2018-12-10T11:56:36.105Z,1012.81
2018-12-10T11:57:26.064Z,1012.86
2018-12-10T11:59:21.828Z,1012.81
2018-12-10T12:00:21.584Z,1012.79
2018-12-10T12:02:15.499Z,1012.82
2018-12-10T12:03:14.832Z,1012.78
2018-12-10T12:05:07.689Z,1012.83
2018-12-10T12:06:07.974Z,1012.83
2018-12-10T12:08:02.977Z,1012.78
2018-12-10T12:09:02.980Z,1012.80
2018-12-10T12:10:57.244Z,1012.80
2018-12-10T12:11:57.193Z,1012.83
2018-12-10T12:13:51.686Z,1012.77
2018-12-10T12:14:51.555Z,1012.89
2018-12-10T12:16:47.440Z,1012.89
2018-12-10T12:17:45.879Z,1012.85
2018-12-10T12:19:41.245Z,1012.86
2018-12-10T12:20:41.198Z,1012.84
2018-12-10T12:22:34.202Z,1012.84
2018-12-10T12:23:34.140Z,1012.84
2018-12-10T12:25:28.592Z,1012.74
2018-12-10T12:26:28.338Z,1012.75
2018-12-10T12:28:23.695Z,1012.79
2018-12-10T12:29:23.807Z,1012.74
2018-12-10T12:31:18.912Z,1012.71
2018-12-10T12:32:18.940Z,1012.67
2018-12-10T12:34:13.839Z,1012.70
2018-12-10T12:35:13.345Z,1012.70
2018-12-10T12:37:07.708Z,1012.72
2018-12-10T12:38:07.600Z,1012.69
2018-12-10T12:40:03.077Z,1012.80
2018-12-10T12:41:02.935Z,1012.73
2018-12-10T12:42:57.340Z,1012.81
2018-12-10T12:43:57.323Z,1012.76
2018-12-10T12:45:51.565Z,1012.79
2018-12-10T12:46:51.444Z,1012.79
2018-12-10T12:48:46.176Z,1012.82
2018-12-10T12:49:45.839Z,1012.77
2018-12-10T12:51:39.245Z,1012.78
2018-12-10T12:52:39.108Z,1012.79
2018-12-10T12:54:34.519Z,1012.79
2018-12-10T12:55:34.390Z,1012.80
2018-12-10T12:57:28.742Z,1012.80
2018-12-10T12:58:28.619Z,1012.81
2018-12-10T13:00:26.988Z,1012.78
2018-12-10T13:01:21.957Z,1012.73
2018-12-10T13:03:16.326Z,1012.64
2018-12-10T13:04:17.244Z,1012.65
2018-12-10T13:06:11.580Z,1012.66
2018-12-10T13:07:11.502Z,1012.70
2018-12-10T13:09:05.907Z,1012.73
2018-12-10T13:10:05.927Z,1012.74
2018-12-10T13:12:01.165Z,1012.71
2018-12-10T13:13:01.217Z,1012.75
2018-12-10T13:14:55.545Z,1012.72
2018-12-10T13:15:55.392Z,1012.73
2018-12-10T13:17:49.821Z,1012.70
2018-12-10T13:18:49.652Z,1012.68
2018-12-10T13:20:45.241Z,1012.74
2018-12-10T13:21:44.933Z,1012.76
2018-12-10T13:23:39.462Z,1012.78
2018-12-10T13:24:39.163Z,1012.79
2018-12-10T13:26:33.779Z,1012.77
2018-12-10T13:27:33.687Z,1012.85
2018-12-10T13:29:31.361Z,1012.82
2018-12-10T13:30:29.281Z,1012.84
2018-12-10T13:32:23.341Z,1012.88
2018-12-10T13:33:23.276Z,1012.86
2018-12-10T13:35:17.568Z,1012.91
2018-12-10T13:36:17.471Z,1012.89
2018-12-10T13:38:12.546Z,1012.93
2018-12-10T13:39:10.326Z,1012.90
2018-12-10T13:41:03.718Z,1012.86
2018-12-10T13:42:03.536Z,1012.80
2018-12-10T13:43:59.550Z,1012.77
2018-12-10T13:44:57.977Z,1012.73
2018-12-10T13:46:52.334Z,1012.79
2018-12-10T13:47:52.278Z,1012.81
2018-12-10T13:49:45.538Z,1012.82
2018-12-10T13:50:45.563Z,1012.89
2018-12-10T13:52:40.026Z,1012.92
2018-12-10T13:53:39.782Z,1012.92
2018-12-10T13:55:33.279Z,1012.95
2018-12-10T13:56:33.118Z,1012.96
2018-12-10T13:58:26.458Z,1012.94
2018-12-10T13:59:26.435Z,1012.94
2018-12-10T14:01:21.758Z,1012.91
2018-12-10T14:02:21.708Z,1012.88
2018-12-10T14:04:16.184Z,1012.92
2018-12-10T14:05:15.983Z,1012.97
2018-12-10T14:07:09.559Z,1013.00
2018-12-10T14:08:09.439Z,1013.03
2018-12-10T14:10:03.759Z,1013.09
2018-12-10T14:11:03.621Z,1013.11
2018-12-10T14:12:56.954Z,1013.06
2018-12-10T14:13:56.922Z,1013.07
2018-12-10T14:15:51.252Z,1013.08
2018-12-10T14:16:51.123Z,1013.10
2018-12-10T14:18:45.481Z,1013.11
2018-12-10T14:19:45.433Z,1013.12
2018-12-10T14:21:39.785Z,1013.11
2018-12-10T14:22:39.730Z,1013.06
2018-12-10T14:24:35.024Z,1013.10
2018-12-10T14:25:35.126Z,1013.07
2018-12-10T14:27:28.228Z,1013.06
2018-12-10T14:28:28.179Z,1013.09
2018-12-10T14:30:23.529Z,1013.11
2018-12-10T14:31:27.362Z,1013.08
2018-12-10T14:33:16.764Z,1013.05
2018-12-10T14:34:16.722Z,1013.04
2018-12-10T14:36:11.070Z,1013.01
2018-12-10T14:37:11.216Z,1012.98
2018-12-10T14:39:05.370Z,1012.99
2018-12-10T14:40:05.255Z,1013.03
2018-12-10T14:41:59.685Z,1013.02
2018-12-10T14:42:59.521Z,1013.06
2018-12-10T14:44:53.877Z,1013.05
2018-12-10T14:45:53.777Z,1013.10
2018-12-10T14:47:47.079Z,1013.12
2018-12-10T14:48:47.022Z,1013.15
2018-12-10T14:50:40.331Z,1013.20
2018-12-10T14:51:40.261Z,1013.20
2018-12-10T14:53:33.566Z,1013.16
2018-12-10T14:54:33.506Z,1013.20
2018-12-10T14:56:26.820Z,1013.22
2018-12-10T14:57:26.760Z,1013.21
2018-12-10T14:59:20.078Z,1013.19
2018-12-10T15:00:20.017Z,1013.23
2018-12-10T15:02:13.306Z,1013.22
2018-12-10T15:03:13.263Z,1013.24
2018-12-10T15:05:06.590Z,1013.21
2018-12-10T15:06:06.531Z,1013.24
2018-12-10T15:07:59.856Z,1013.23
2018-12-10T15:08:59.798Z,1013.20
2018-12-10T15:10:53.115Z,1013.27
2018-12-10T15:11:53.065Z,1013.26
2018-12-10T15:13:46.350Z,1013.30
2018-12-10T15:14:46.322Z,1013.33
2018-12-10T15:16:39.645Z,1013.32
2018-12-10T15:17:39.583Z,1013.35
2018-12-10T15:19:32.918Z,1013.30
2018-12-10T15:20:32.835Z,1013.30
2018-12-10T15:22:26.147Z,1013.31
2018-12-10T15:23:26.109Z,1013.34
2018-12-10T15:25:19.428Z,1013.33
2018-12-10T15:26:19.368Z,1013.37
2018-12-10T15:28:12.684Z,1013.41
2018-12-10T15:29:12.627Z,1013.40
2018-12-10T15:31:05.981Z,1013.43
2018-12-10T15:32:05.893Z,1013.42
2018-12-10T15:33:59.219Z,1013.45
2018-12-10T15:34:59.179Z,1013.46
2018-12-10T15:36:52.483Z,1013.50
2018-12-10T15:37:52.413Z,1013.50
2018-12-10T15:39:45.707Z,1013.48
2018-12-10T15:40:45.669Z,1013.53
2018-12-10T15:42:39.014Z,1013.47
2018-12-10T15:43:38.936Z,1013.50
2018-12-10T15:45:32.268Z,1013.48
2018-12-10T15:46:32.210Z,1013.49
2018-12-10T15:48:25.513Z,1013.54
2018-12-10T15:49:25.471Z,1013.54
2018-12-10T15:51:18.773Z,1013.51
2018-12-10T15:52:18.723Z,1013.58
2018-12-10T15:54:12.038Z,1013.50
2018-12-10T15:55:11.984Z,1013.54
2018-12-10T15:57:05.306Z,1013.57
2018-12-10T15:58:05.240Z,1013.62
2018-12-10T15:59:58.541Z,1013.69
2018-12-10T16:00:58.529Z,1013.68
2018-12-10T16:02:51.879Z,1013.76
2018-12-10T16:03:51.792Z,1013.72
2018-12-10T16:05:45.086Z,1013.81
2018-12-10T16:06:45.045Z,1013.81
2018-12-10T16:08:38.395Z,1013.92
2018-12-10T16:09:45.935Z,1014.08
2018-12-10T16:11:31.614Z,1013.88
2018-12-10T16:12:31.564Z,1013.72
2018-12-10T16:14:25.006Z,1013.74
2018-12-10T16:15:24.815Z,1013.73
2018-12-10T16:17:18.135Z,1013.67
2018-12-10T16:18:18.077Z,1013.77
2018-12-10T16:20:11.377Z,1013.74
2018-12-10T16:21:11.341Z,1013.78
2018-12-10T16:23:04.655Z,1013.72
2018-12-10T16:24:04.591Z,1013.67
2018-12-10T16:25:57.930Z,1013.75
2018-12-10T16:26:57.876Z,1013.75
2018-12-10T16:28:51.183Z,1013.80
2018-12-10T16:29:51.127Z,1013.84
2018-12-10T16:31:44.440Z,1013.82
2018-12-10T16:32:44.397Z,1013.77
2018-12-10T16:34:37.715Z,1013.82
2018-12-10T16:35:37.646Z,1013.86
2018-12-10T16:37:30.946Z,1013.85
2018-12-10T16:38:30.928Z,1013.82
2018-12-10T16:40:24.236Z,1013.82
2018-12-10T16:41:24.191Z,1013.82
2018-12-10T16:43:17.483Z,1013.82
2018-12-10T16:44:17.426Z,1013.86
2018-12-10T16:46:10.753Z,1013.90
2018-12-10T16:47:10.695Z,1013.91
2018-12-10T16:49:04.046Z,1013.92
2018-12-10T16:50:03.961Z,1013.94
2018-12-10T16:51:57.283Z,1013.98
2018-12-10T16:52:57.209Z,1013.97
2018-12-10T16:54:50.561Z,1013.96
2018-12-10T16:55:50.491Z,1013.98
2018-12-10T16:57:43.793Z,1013.98
2018-12-10T16:58:43.761Z,1013.98
2018-12-10T17:00:37.058Z,1014.04
2018-12-10T17:01:37.003Z,1014.05
2018-12-10T17:03:31.312Z,1014.08
2018-12-10T17:04:31.281Z,1014.05
2018-12-10T17:06:24.573Z,1014.03
2018-12-10T17:07:24.523Z,1014.04
2018-12-10T17:09:17.843Z,1014.02
2018-12-10T17:10:17.768Z,1014.00
2018-12-10T17:12:11.084Z,1014.03
2018-12-10T17:13:11.025Z,1014.01
2018-12-10T17:15:04.327Z,1014.01
2018-12-10T17:16:04.335Z,1014.09
2018-12-10T17:17:57.599Z,1013.97
2018-12-10T17:18:57.555Z,1014.07
2018-12-10T17:20:50.856Z,1014.09
2018-12-10T17:21:50.829Z,1014.14
2018-12-10T17:23:44.113Z,1014.05
2018-12-10T17:24:44.054Z,1014.07
2018-12-10T17:26:37.378Z,1014.11
2018-12-10T17:27:37.341Z,1014.08
2018-12-10T17:29:30.605Z,1014.14
2018-12-10T17:30:30.569Z,1014.10